Monroeville, Ohio
Current Conditions -  °F | °C
As of 8:51 PM on Wednesday 22 Oct 2014 (Local Time) from KPCW Reporting Station
NA  
Wind Chill: 44°   Ceiling: NA
Heat Index: 47°   Visibility: NA
Dew Point: 41°   Wind: 6mph
Humidity: 80%   Direction: 40°NE
Pressure: 30.26"   Gusts: NA
Location:  41.24°N, 82.7°W
Report Text: KPCW 230051Z AUTO 04005KT 08/05 A3026 RMK AO2 T00830050 $
Loading
Personal Weather Stations






























Interactive Weather Map
Tropical Storm Tracking
New forecast layout! Learn more

10-Day Weather Forecast

Advertisements
Track Severe Weather on mobile